createdAt,value
2022-10-22T00:00:38.063Z,95.54
2022-10-22T00:02:36.306Z,95.92
2022-10-22T00:04:36.136Z,96.06
2022-10-22T00:06:35.331Z,95.81
2022-10-22T00:08:33.687Z,95.53
2022-10-22T00:10:32.033Z,95.49
2022-10-22T00:12:30.274Z,95.47
2022-10-22T00:14:28.526Z,95.51
2022-10-22T00:16:26.791Z,96.16
2022-10-22T00:18:25.142Z,96.47
2022-10-22T00:20:24.791Z,96.86
2022-10-22T00:22:23.073Z,96.78
2022-10-22T00:24:21.588Z,96.94
2022-10-22T00:26:19.791Z,96.55
2022-10-22T00:28:18.174Z,96.55
2022-10-22T00:30:16.765Z,96.70
2022-10-22T00:32:15.309Z,96.21
2022-10-22T00:34:13.571Z,96.29
2022-10-22T00:36:13.144Z,95.68
2022-10-22T00:38:11.513Z,95.65
2022-10-22T00:40:11.353Z,96.23
2022-10-22T00:42:17.334Z,96.49
2022-10-22T00:44:52.848Z,96.78
2022-10-22T00:46:51.021Z,97.48
2022-10-22T00:48:49.333Z,97.23
2022-10-22T00:50:51.631Z,97.23
2022-10-22T00:52:51.175Z,97.57
2022-10-22T00:54:50.271Z,97.48
2022-10-22T00:56:49.245Z,96.86
2022-10-22T00:58:50.436Z,97.10
2022-10-22T01:00:49.027Z,96.55
2022-10-22T01:02:48.417Z,96.45
2022-10-22T01:04:46.804Z,96.29
2022-10-22T01:06:45.208Z,96.31
2022-10-22T01:08:50.280Z,96.61
2022-10-22T01:11:01.132Z,96.95
2022-10-22T01:13:11.414Z,97.36
2022-10-22T01:15:25.915Z,97.55
2022-10-22T01:17:31.515Z,97.69
2022-10-22T01:19:55.366Z,98.00
2022-10-22T01:21:59.908Z,97.35
2022-10-22T01:24:43.434Z,97.01
2022-10-22T01:26:55.241Z,97.20
2022-10-22T01:29:02.454Z,96.81
2022-10-22T01:31:02.933Z,96.95
2022-10-22T01:33:04.722Z,96.67
2022-10-22T01:35:07.050Z,97.39
2022-10-22T01:37:05.444Z,97.62
2022-10-22T01:39:05.046Z,97.78
2022-10-22T01:41:04.220Z,97.99
2022-10-22T01:43:05.119Z,98.25
2022-10-22T01:45:12.864Z,98.55
2022-10-22T01:47:21.017Z,98.84
2022-10-22T01:49:28.909Z,99.02
2022-10-22T01:51:39.818Z,98.80
2022-10-22T01:53:46.253Z,98.18
2022-10-22T01:55:56.739Z,98.21
2022-10-22T01:58:04.849Z,97.80
2022-10-22T02:00:08.858Z,97.90
2022-10-22T02:02:14.637Z,98.41
2022-10-22T02:04:19.593Z,98.42
2022-10-22T02:06:21.848Z,98.26
2022-10-22T02:08:24.668Z,98.42
2022-10-22T02:10:24.433Z,98.33
2022-10-22T02:12:24.983Z,98.58
2022-10-22T02:14:24.416Z,98.48
2022-10-22T02:16:28.892Z,98.72
2022-10-22T02:18:31.488Z,98.47
2022-10-22T02:20:32.573Z,98.08
2022-10-22T02:22:31.683Z,98.01
2022-10-22T02:24:30.532Z,98.15
2022-10-22T02:26:35.743Z,98.53
2022-10-22T02:28:40.630Z,98.12
2022-10-22T02:30:42.465Z,98.43
2022-10-22T02:32:45.724Z,98.73
2022-10-22T02:34:43.931Z,98.68
2022-10-22T02:36:48.067Z,99.13
2022-10-22T02:38:52.306Z,99.65
2022-10-22T02:40:50.858Z,99.54
2022-10-22T02:42:51.533Z,99.59
2022-10-22T02:44:49.598Z,99.90
2022-10-22T02:46:47.961Z,99.83
2022-10-22T02:48:47.675Z,99.67
2022-10-22T02:50:45.834Z,98.44
2022-10-22T02:52:44.054Z,98.38
2022-10-22T02:54:42.234Z,98.41
2022-10-22T02:56:40.460Z,98.45
2022-10-22T02:58:38.742Z,98.60
2022-10-22T03:00:36.938Z,98.97
2022-10-22T03:02:35.433Z,98.97
2022-10-22T03:04:34.973Z,99.13
2022-10-22T03:06:33.107Z,99.73
2022-10-22T03:08:31.397Z,99.85
2022-10-22T03:10:29.589Z,99.81
2022-10-22T03:12:27.657Z,100.00
2022-10-22T03:14:25.964Z,100.00
2022-10-22T03:16:24.147Z,100.00
2022-10-22T03:18:22.475Z,100.00
2022-10-22T03:20:22.022Z,99.83
2022-10-22T03:22:24.713Z,99.81
2022-10-22T03:24:27.060Z,100.00
2022-10-22T03:26:26.473Z,99.82
2022-10-22T03:28:24.755Z,99.46
2022-10-22T03:30:23.237Z,100.00
2022-10-22T03:32:21.355Z,100.00
2022-10-22T03:34:19.583Z,100.00
2022-10-22T03:36:19.357Z,100.00
2022-10-22T03:38:17.876Z,100.00
2022-10-22T03:40:16.336Z,100.00
2022-10-22T03:42:14.578Z,100.00
2022-10-22T03:44:13.487Z,100.00
2022-10-22T03:46:11.709Z,100.00
2022-10-22T03:48:09.867Z,100.00
2022-10-22T03:50:09.396Z,100.00
2022-10-22T03:52:10.630Z,99.62
2022-10-22T03:54:08.945Z,100.00
2022-10-22T03:56:10.188Z,100.00
2022-10-22T03:58:08.516Z,100.00
2022-10-22T04:00:08.220Z,100.00
2022-10-22T04:02:10.436Z,100.00
2022-10-22T04:04:09.511Z,100.00
2022-10-22T04:06:10.380Z,100.00
2022-10-22T04:08:10.027Z,100.00
2022-10-22T04:10:08.924Z,100.00
2022-10-22T04:12:08.532Z,99.42
2022-10-22T04:14:07.189Z,98.44
2022-10-22T04:16:09.313Z,98.22
2022-10-22T04:18:07.610Z,97.42
2022-10-22T04:20:07.149Z,97.69
2022-10-22T04:22:05.302Z,97.58
2022-10-22T04:24:05.122Z,97.60
2022-10-22T04:26:05.550Z,97.58
2022-10-22T04:28:03.768Z,97.38
2022-10-22T04:30:01.879Z,96.92
2022-10-22T04:32:00.183Z,96.59
2022-10-22T04:34:00.605Z,95.63
2022-10-22T04:35:59.020Z,95.30
2022-10-22T04:37:57.581Z,95.41
2022-10-22T04:39:58.229Z,94.91
2022-10-22T04:41:56.785Z,95.17
2022-10-22T04:43:56.215Z,95.31
2022-10-22T04:45:54.679Z,95.61
2022-10-22T04:47:52.974Z,96.00
2022-10-22T04:49:51.210Z,96.06
2022-10-22T04:51:49.415Z,95.86
2022-10-22T04:53:47.997Z,95.92
2022-10-22T04:55:47.785Z,95.84
2022-10-22T04:57:45.843Z,95.51
2022-10-22T04:59:44.138Z,94.89
2022-10-22T05:01:43.997Z,94.38
2022-10-22T05:03:42.807Z,94.13
2022-10-22T05:05:41.148Z,93.47
2022-10-22T05:07:39.563Z,92.75
2022-10-22T05:09:38.117Z,92.45
2022-10-22T05:11:41.562Z,92.39
2022-10-22T05:13:40.228Z,92.67
2022-10-22T05:15:38.532Z,92.89
2022-10-22T05:17:38.708Z,93.24
2022-10-22T05:19:37.267Z,93.73
2022-10-22T05:21:36.214Z,93.92
2022-10-22T05:23:34.474Z,94.12
2022-10-22T05:25:32.779Z,94.47
2022-10-22T05:27:32.361Z,95.11
2022-10-22T05:29:30.659Z,94.99
2022-10-22T05:31:29.590Z,95.40
2022-10-22T05:33:28.202Z,94.94
2022-10-22T05:35:26.590Z,94.76
2022-10-22T05:37:24.879Z,94.18
2022-10-22T05:39:22.998Z,93.68
2022-10-22T05:41:24.178Z,93.51
2022-10-22T05:43:23.953Z,93.79
2022-10-22T05:45:22.149Z,93.46
2022-10-22T05:47:20.443Z,93.06
2022-10-22T05:49:18.626Z,92.51
2022-10-22T05:51:16.824Z,88.01
2022-10-22T05:53:15.124Z,83.47
2022-10-22T05:55:13.414Z,82.63
2022-10-22T05:57:11.582Z,82.21
2022-10-22T05:59:12.425Z,82.67
2022-10-22T06:01:14.288Z,83.19
2022-10-22T06:03:12.451Z,84.73
2022-10-22T06:05:10.775Z,84.24
2022-10-22T06:07:15.007Z,82.93
2022-10-22T06:09:18.461Z,81.47
2022-10-22T06:11:18.713Z,81.06
2022-10-22T06:13:16.891Z,78.43
2022-10-22T06:15:19.337Z,74.78
2022-10-22T06:17:19.575Z,73.62
2022-10-22T06:19:19.610Z,72.05
2022-10-22T06:21:18.433Z,70.94
2022-10-22T06:23:16.468Z,69.62
2022-10-22T06:25:14.872Z,69.80
2022-10-22T06:27:13.053Z,68.80
2022-10-22T06:29:11.810Z,69.31
2022-10-22T06:31:12.082Z,69.51
2022-10-22T06:33:11.989Z,69.10
2022-10-22T06:35:10.563Z,69.37
2022-10-22T06:37:09.079Z,68.67
2022-10-22T06:39:07.175Z,68.58
2022-10-22T06:41:06.168Z,67.74
2022-10-22T06:43:05.643Z,66.01
2022-10-22T06:45:03.961Z,65.98
2022-10-22T06:47:11.049Z,65.93
2022-10-22T06:49:12.681Z,63.89
2022-10-22T06:51:13.070Z,62.12
2022-10-22T06:53:11.245Z,61.69
2022-10-22T06:55:10.397Z,61.99
2022-10-22T06:57:08.510Z,62.40
2022-10-22T06:59:06.687Z,62.08
2022-10-22T07:01:05.957Z,62.63
2022-10-22T07:03:05.655Z,63.39
2022-10-22T07:05:04.110Z,62.90
2022-10-22T07:07:02.351Z,62.67
2022-10-22T07:09:01.047Z,60.62
2022-10-22T07:11:07.731Z,58.98
2022-10-22T07:13:05.775Z,60.13
2022-10-22T07:15:06.317Z,61.13
2022-10-22T07:17:06.591Z,60.68
2022-10-22T07:19:06.632Z,59.79
2022-10-22T07:21:08.998Z,58.87
2022-10-22T07:23:07.267Z,57.64
2022-10-22T07:25:07.260Z,58.22
2022-10-22T07:27:09.390Z,58.05
2022-10-22T07:29:10.229Z,59.54
2022-10-22T07:31:08.889Z,58.33
2022-10-22T07:33:07.641Z,57.54
2022-10-22T07:35:08.275Z,58.35
2022-10-22T07:37:06.456Z,58.87
2022-10-22T07:39:05.683Z,58.84
2022-10-22T07:41:04.116Z,58.66
2022-10-22T07:43:02.837Z,58.45
2022-10-22T07:45:01.156Z,56.78
2022-10-22T07:46:59.464Z,55.68
2022-10-22T07:48:57.749Z,54.90
2022-10-22T07:50:58.319Z,55.97
2022-10-22T07:52:58.206Z,58.19
2022-10-22T07:54:56.703Z,58.65
2022-10-22T07:56:54.975Z,54.92
2022-10-22T07:58:53.271Z,52.77
2022-10-22T08:00:52.620Z,52.57
2022-10-22T08:02:50.798Z,51.75
2022-10-22T08:04:49.061Z,51.36
2022-10-22T08:06:48.609Z,51.93
2022-10-22T08:08:46.978Z,51.43
2022-10-22T08:10:45.597Z,51.08
2022-10-22T08:12:44.173Z,51.61
2022-10-22T08:14:42.549Z,49.98
2022-10-22T08:16:41.157Z,47.62
2022-10-22T08:18:39.507Z,47.89
2022-10-22T08:20:37.824Z,48.07
2022-10-22T08:22:37.735Z,46.73
2022-10-22T08:24:36.149Z,46.50
2022-10-22T08:26:34.386Z,45.61
2022-10-22T08:28:37.030Z,45.38
2022-10-22T08:30:37.927Z,45.12
2022-10-22T08:32:36.391Z,43.86
2022-10-22T08:34:34.555Z,43.04
2022-10-22T08:36:32.784Z,42.48
2022-10-22T08:38:32.567Z,40.67
2022-10-22T08:40:35.183Z,38.92
2022-10-22T08:43:18.276Z,36.91
2022-10-22T08:45:24.020Z,38.63
2022-10-22T08:47:47.860Z,36.40
2022-10-22T08:49:46.525Z,35.28
2022-10-22T08:51:44.997Z,35.58
2022-10-22T08:54:16.556Z,35.95
2022-10-22T08:56:16.255Z,37.69
2022-10-22T08:58:21.652Z,36.93
2022-10-22T09:00:25.489Z,38.28
2022-10-22T09:02:48.658Z,38.09
2022-10-22T09:04:54.832Z,37.88
2022-10-22T09:06:54.659Z,38.45
2022-10-22T09:08:55.900Z,40.28
2022-10-22T09:11:00.077Z,41.25
2022-10-22T09:12:58.134Z,40.00
2022-10-22T09:14:56.513Z,38.35
2022-10-22T09:17:17.319Z,37.15
2022-10-22T09:19:26.581Z,34.50
2022-10-22T09:21:35.571Z,33.08
2022-10-22T09:23:40.253Z,34.03
2022-10-22T09:25:41.435Z,34.21
2022-10-22T09:27:40.030Z,33.52
2022-10-22T09:29:38.884Z,31.58
2022-10-22T09:31:37.202Z,31.20
2022-10-22T09:33:35.477Z,30.57
2022-10-22T09:35:45.862Z,32.35
2022-10-22T09:37:58.170Z,33.75
2022-10-22T09:39:59.063Z,33.33
2022-10-22T09:41:58.613Z,33.93
2022-10-22T09:43:57.089Z,31.00
2022-10-22T09:45:59.445Z,29.41
2022-10-22T09:48:11.807Z,30.75
2022-10-22T09:50:22.700Z,30.68
2022-10-22T09:52:29.520Z,29.34
2022-10-22T09:54:40.059Z,30.99
2022-10-22T09:56:41.923Z,31.00
2022-10-22T09:58:49.260Z,30.82
2022-10-22T10:00:49.342Z,30.88
2022-10-22T10:02:47.631Z,30.47
2022-10-22T10:04:49.459Z,29.78
2022-10-22T10:06:47.620Z,29.40
2022-10-22T10:08:45.969Z,29.74
2022-10-22T10:10:49.218Z,30.60
2022-10-22T10:12:55.484Z,32.95
2022-10-22T10:15:04.252Z,33.90
2022-10-22T10:17:09.206Z,33.74
2022-10-22T10:19:19.058Z,33.96
2022-10-22T10:21:28.031Z,33.29
2022-10-22T10:23:32.203Z,31.44
2022-10-22T10:25:42.532Z,31.17
2022-10-22T10:27:44.666Z,29.36
2022-10-22T10:29:52.673Z,29.03
2022-10-22T10:32:07.869Z,28.79
2022-10-22T10:34:16.074Z,28.36
2022-10-22T10:36:20.909Z,30.77
2022-10-22T10:38:35.468Z,30.69
2022-10-22T10:40:42.135Z,32.41
2022-10-22T10:42:50.320Z,32.24
2022-10-22T10:45:03.845Z,34.72
2022-10-22T10:47:14.219Z,36.82
2022-10-22T10:49:20.088Z,39.50
2022-10-22T10:51:36.899Z,42.37
2022-10-22T10:53:49.596Z,43.14
2022-10-22T10:55:59.312Z,43.94
2022-10-22T10:58:26.946Z,44.83
2022-10-22T11:00:36.044Z,44.62
2022-10-22T11:03:19.810Z,45.09
2022-10-22T11:21:34.012Z,46.94
2022-10-22T11:28:39.509Z,47.16
2022-10-22T11:30:39.515Z,47.31
2022-10-22T11:32:39.359Z,47.63
2022-10-22T11:34:44.924Z,47.64
2022-10-22T11:37:44.068Z,48.17
2022-10-22T11:55:49.120Z,49.11
2022-10-22T11:57:49.481Z,48.71
2022-10-22T11:59:51.608Z,48.76
2022-10-22T12:01:49.770Z,48.49
2022-10-22T12:03:51.285Z,48.61
2022-10-22T12:06:08.486Z,48.64
2022-10-22T12:08:28.040Z,48.54
2022-10-22T12:10:28.666Z,48.08
2022-10-22T12:12:29.588Z,48.54
2022-10-22T12:14:35.531Z,48.22
2022-10-22T12:16:55.681Z,48.19
2022-10-22T12:19:02.079Z,48.50
2022-10-22T12:21:03.612Z,48.51
2022-10-22T12:23:30.024Z,48.13
2022-10-22T12:25:36.698Z,48.06
2022-10-22T12:27:39.489Z,48.11
2022-10-22T12:29:38.332Z,48.08
2022-10-22T12:32:14.593Z,47.92
2022-10-22T12:35:14.684Z,48.18
2022-10-22T12:40:59.236Z,48.73
2022-10-22T12:44:00.821Z,48.51
2022-10-22T12:47:15.432Z,48.02
2022-10-22T13:00:24.190Z,50.42
2022-10-22T13:06:27.627Z,48.62
2022-10-22T13:08:30.257Z,49.75
2022-10-22T13:10:34.086Z,48.51
2022-10-22T13:16:18.075Z,48.50
2022-10-22T13:18:20.699Z,48.73
2022-10-22T13:30:57.366Z,47.72
2022-10-22T13:33:00.260Z,47.47
2022-10-22T13:36:18.522Z,49.63
2022-10-22T13:46:12.749Z,49.36
2022-10-22T13:48:19.293Z,48.05
2022-10-22T13:58:39.369Z,48.39
2022-10-22T14:08:21.774Z,48.88
2022-10-22T14:10:22.659Z,48.37
2022-10-22T14:12:53.703Z,48.19
2022-10-22T14:14:52.439Z,48.40
2022-10-22T14:16:51.423Z,48.08
2022-10-22T14:28:07.146Z,48.29
2022-10-22T14:30:08.402Z,49.48
2022-10-22T14:35:38.443Z,49.12
2022-10-22T14:37:36.727Z,49.16
2022-10-22T14:39:35.019Z,49.29
2022-10-22T14:41:33.198Z,49.61
2022-10-22T14:43:33.045Z,49.69
2022-10-22T14:45:32.876Z,49.91
2022-10-22T14:47:31.896Z,50.13
2022-10-22T14:49:30.252Z,50.25
2022-10-22T14:51:28.394Z,50.23
2022-10-22T14:53:26.565Z,50.08
2022-10-22T14:55:27.203Z,50.18
2022-10-22T14:57:25.404Z,50.33
2022-10-22T14:59:25.037Z,50.49
2022-10-22T15:01:24.732Z,50.69
2022-10-22T15:03:22.936Z,50.87
2022-10-22T15:05:21.290Z,51.28
2022-10-22T15:07:20.337Z,51.38
2022-10-22T15:09:18.708Z,50.97
2022-10-22T15:11:20.099Z,50.75
2022-10-22T15:15:22.856Z,50.73
2022-10-22T15:17:26.073Z,50.97
2022-10-22T15:19:24.272Z,51.13
2022-10-22T15:21:24.114Z,51.46
2022-10-22T15:23:22.310Z,52.41
2022-10-22T15:25:20.781Z,52.21
2022-10-22T15:27:19.103Z,52.19
2022-10-22T15:29:19.367Z,52.58
2022-10-22T15:31:17.595Z,53.47
2022-10-22T15:33:17.248Z,54.73
2022-10-22T15:35:15.804Z,54.88
2022-10-22T15:37:14.371Z,55.66
2022-10-22T15:39:12.556Z,56.08
2022-10-22T15:41:13.806Z,57.32
2022-10-22T15:43:12.526Z,57.93
2022-10-22T15:45:11.667Z,58.28
2022-10-22T15:47:10.135Z,59.26
2022-10-22T15:49:14.164Z,59.53
2022-10-22T15:51:14.941Z,60.26
2022-10-22T15:53:13.356Z,60.64
2022-10-22T15:57:16.818Z,62.38
2022-10-22T15:59:16.653Z,62.62
2022-10-22T16:01:15.755Z,62.99
2022-10-22T16:03:13.955Z,64.43
2022-10-22T16:05:16.277Z,65.31
2022-10-22T16:07:14.570Z,65.12
2022-10-22T16:09:14.783Z,65.42
2022-10-22T16:11:13.247Z,65.70
2022-10-22T16:13:11.572Z,65.85
2022-10-22T16:15:10.818Z,66.45
2022-10-22T16:17:09.103Z,66.81
2022-10-22T16:19:07.527Z,67.28
2022-10-22T16:21:07.381Z,67.85
2022-10-22T16:23:05.644Z,67.43
2022-10-22T16:25:04.040Z,67.54
2022-10-22T16:27:03.607Z,67.61
2022-10-22T16:29:01.805Z,68.07
2022-10-22T16:31:05.997Z,68.04
2022-10-22T16:33:06.989Z,68.57
2022-10-22T16:35:09.580Z,68.72
2022-10-22T16:37:10.621Z,69.14
2022-10-22T16:39:09.069Z,70.08
2022-10-22T16:41:12.307Z,70.07
2022-10-22T16:43:10.694Z,69.36
2022-10-22T16:45:10.121Z,69.08
2022-10-22T16:47:08.780Z,69.00
2022-10-22T16:49:07.860Z,68.88
2022-10-22T16:51:13.387Z,69.03
2022-10-22T16:53:13.427Z,69.40
2022-10-22T16:55:11.642Z,70.70
2022-10-22T16:57:12.539Z,71.09
2022-10-22T16:59:13.742Z,70.54
2022-10-22T17:01:14.877Z,70.25
2022-10-22T17:03:15.390Z,70.60
2022-10-22T17:05:15.279Z,70.60
2022-10-22T17:07:13.638Z,70.84
2022-10-22T17:09:13.358Z,70.86
2022-10-22T17:11:17.022Z,70.56
2022-10-22T17:13:15.120Z,71.39
2022-10-22T17:15:14.167Z,72.13
2022-10-22T17:17:12.698Z,71.01
2022-10-22T17:19:15.843Z,70.52
2022-10-22T17:21:15.058Z,70.65
2022-10-22T17:23:13.375Z,70.21
2022-10-22T17:25:20.411Z,70.45
2022-10-22T17:27:18.705Z,71.76
2022-10-22T17:29:16.879Z,72.23
2022-10-22T17:31:19.186Z,72.28
2022-10-22T17:33:17.938Z,72.19
2022-10-22T17:35:17.426Z,72.08
2022-10-22T17:37:15.783Z,71.43
2022-10-22T17:39:17.928Z,72.22
2022-10-22T17:41:20.025Z,72.64
2022-10-22T17:43:18.247Z,72.65
2022-10-22T17:45:16.912Z,72.92
2022-10-22T17:47:15.526Z,73.42
2022-10-22T17:49:18.245Z,73.74
2022-10-22T17:51:18.097Z,73.67
2022-10-22T17:53:16.730Z,73.84
2022-10-22T17:55:15.141Z,73.84
2022-10-22T17:57:15.236Z,74.27
2022-10-22T17:59:16.057Z,74.15
2022-10-22T18:01:22.801Z,74.80
2022-10-22T18:03:21.310Z,75.29
2022-10-22T18:05:19.666Z,75.96
2022-10-22T18:07:18.237Z,76.04
2022-10-22T18:09:18.979Z,75.69
2022-10-22T18:11:20.312Z,75.75
2022-10-22T18:13:21.126Z,75.99
2022-10-22T18:15:19.324Z,76.47
2022-10-22T18:17:17.624Z,77.20
2022-10-22T18:19:18.228Z,77.55
2022-10-22T18:21:16.605Z,77.29
2022-10-22T18:23:15.613Z,77.53
2022-10-22T18:25:13.974Z,78.46
2022-10-22T18:27:12.385Z,78.48
2022-10-22T18:29:16.238Z,79.23
2022-10-22T18:31:19.147Z,79.76
2022-10-22T18:33:24.071Z,80.67
2022-10-22T18:35:22.530Z,80.54
2022-10-22T18:37:20.879Z,80.44
2022-10-22T18:39:19.801Z,80.11
2022-10-22T18:41:18.541Z,80.70
2022-10-22T18:43:17.285Z,81.45
2022-10-22T18:45:16.996Z,81.17
2022-10-22T18:47:15.418Z,81.16
2022-10-22T18:49:19.207Z,81.89
2022-10-22T18:51:17.776Z,82.54
2022-10-22T18:53:17.386Z,83.07
2022-10-22T18:55:15.734Z,83.12
2022-10-22T18:57:13.895Z,84.49
2022-10-22T18:59:20.462Z,84.96
2022-10-22T19:01:24.561Z,83.68
2022-10-22T19:03:22.855Z,83.73
2022-10-22T19:05:21.068Z,83.66
2022-10-22T19:07:19.477Z,85.45
2022-10-22T19:09:18.206Z,86.22
2022-10-22T19:11:18.321Z,86.26
2022-10-22T19:13:18.653Z,85.69
2022-10-22T19:15:17.846Z,86.24
2022-10-22T19:17:17.783Z,86.31
2022-10-22T19:19:18.184Z,85.37
2022-10-22T19:21:17.316Z,85.14
2022-10-22T19:23:19.970Z,85.22
2022-10-22T19:25:19.258Z,86.25
2022-10-22T19:27:17.748Z,85.44
2022-10-22T19:29:17.542Z,84.84
2022-10-22T19:31:20.324Z,84.85
2022-10-22T19:33:20.032Z,85.00
2022-10-22T19:35:18.738Z,84.85
2022-10-22T19:37:17.177Z,84.61
2022-10-22T19:39:16.953Z,84.20
2022-10-22T19:41:17.917Z,84.08
2022-10-22T19:43:18.945Z,82.45
2022-10-22T19:45:18.263Z,82.82
2022-10-22T19:47:16.855Z,83.02
2022-10-22T19:49:20.366Z,83.15
2022-10-22T19:51:21.888Z,83.78
2022-10-22T19:53:20.420Z,84.20
2022-10-22T19:55:19.046Z,84.19
2022-10-22T19:57:19.681Z,84.64
2022-10-22T19:59:20.774Z,84.31
2022-10-22T20:01:19.961Z,84.24
2022-10-22T20:03:20.034Z,84.90
2022-10-22T20:05:20.035Z,84.94
2022-10-22T20:07:18.939Z,84.38
2022-10-22T20:09:17.330Z,84.69
2022-10-22T20:11:22.545Z,84.87
2022-10-22T20:13:24.358Z,85.19
2022-10-22T20:15:22.585Z,85.09
2022-10-22T20:17:20.985Z,85.82
2022-10-22T20:19:19.464Z,85.87
2022-10-22T20:21:20.161Z,86.37
2022-10-22T20:23:18.413Z,86.06
2022-10-22T20:25:17.075Z,85.85
2022-10-22T20:27:15.449Z,86.03
2022-10-22T20:29:15.028Z,85.95
2022-10-22T20:31:15.900Z,86.38
2022-10-22T20:33:14.685Z,86.56
2022-10-22T20:35:12.993Z,87.26
2022-10-22T20:37:12.621Z,87.50
2022-10-22T20:39:14.048Z,87.67
2022-10-22T20:41:15.294Z,86.84
2022-10-22T20:43:13.499Z,87.12
2022-10-22T20:45:13.750Z,86.87
2022-10-22T20:47:14.005Z,86.88
2022-10-22T20:49:18.471Z,87.08
2022-10-22T20:51:16.903Z,87.15
2022-10-22T20:53:21.736Z,87.52
2022-10-22T20:55:20.872Z,87.09
2022-10-22T20:57:19.301Z,87.17
2022-10-22T20:59:17.978Z,86.94
2022-10-22T21:01:21.554Z,86.78
2022-10-22T21:03:23.725Z,87.11
2022-10-22T21:05:22.152Z,87.22
2022-10-22T21:07:22.525Z,87.76
2022-10-22T21:09:22.994Z,88.31
2022-10-22T21:11:26.061Z,88.71
2022-10-22T21:13:24.109Z,89.50
2022-10-22T21:15:22.415Z,89.45
2022-10-22T21:17:20.583Z,89.24
2022-10-22T21:19:20.462Z,89.15
2022-10-22T21:21:19.310Z,88.58
2022-10-22T21:23:17.627Z,88.10
2022-10-22T21:25:17.445Z,87.42
2022-10-22T21:27:15.669Z,87.19
2022-10-22T21:29:14.541Z,86.71
2022-10-22T21:31:20.326Z,87.26
2022-10-22T21:33:18.596Z,86.99
2022-10-22T21:35:17.007Z,87.02
2022-10-22T21:37:15.365Z,86.66
2022-10-22T21:39:14.606Z,86.54
2022-10-22T21:41:16.609Z,86.82
2022-10-22T21:43:14.928Z,86.80
2022-10-22T21:45:14.216Z,86.60
2022-10-22T21:47:13.043Z,86.42
2022-10-22T21:49:11.218Z,86.41
2022-10-22T21:51:13.296Z,86.21
2022-10-22T21:53:13.355Z,86.54
2022-10-22T21:55:11.892Z,86.74
2022-10-22T21:57:11.494Z,87.72
2022-10-22T21:59:09.876Z,87.85
2022-10-22T22:01:08.190Z,88.24
2022-10-22T22:03:08.704Z,88.49
2022-10-22T22:05:10.838Z,88.62
2022-10-22T22:07:09.040Z,88.37
2022-10-22T22:09:07.423Z,88.62
2022-10-22T22:11:09.657Z,88.76
2022-10-22T22:13:12.005Z,88.32
2022-10-22T22:15:11.150Z,88.28
2022-10-22T22:17:10.597Z,89.16
2022-10-22T22:19:10.815Z,89.29
2022-10-22T22:21:11.751Z,89.36
2022-10-22T22:23:10.024Z,89.88
2022-10-22T22:25:09.466Z,89.66
2022-10-22T22:27:07.906Z,89.75
2022-10-22T22:29:07.605Z,89.74
2022-10-22T22:31:14.958Z,89.89
2022-10-22T22:33:13.227Z,89.37
2022-10-22T22:35:12.119Z,90.19
2022-10-22T22:37:10.737Z,90.89
2022-10-22T22:39:10.497Z,91.28
2022-10-22T22:41:09.560Z,91.44
2022-10-22T22:43:08.044Z,91.94
2022-10-22T22:45:08.737Z,92.56
2022-10-22T22:47:07.112Z,92.55
2022-10-22T22:49:08.272Z,91.94
2022-10-22T22:51:07.463Z,92.27
2022-10-22T22:53:05.607Z,92.79
2022-10-22T22:55:03.854Z,92.11
2022-10-22T22:57:02.185Z,92.65
2022-10-22T22:59:00.426Z,92.73
2022-10-22T23:01:11.292Z,93.26
2022-10-22T23:03:09.705Z,93.61
2022-10-22T23:05:08.716Z,93.74
2022-10-22T23:07:06.916Z,93.73
2022-10-22T23:09:06.718Z,93.63
2022-10-22T23:11:06.998Z,92.99
2022-10-22T23:13:05.175Z,92.97
2022-10-22T23:15:04.057Z,92.36
2022-10-22T23:17:03.747Z,92.03
2022-10-22T23:19:03.875Z,91.74
2022-10-22T23:21:05.325Z,91.72
2022-10-22T23:23:06.098Z,91.83
2022-10-22T23:25:04.517Z,92.05
2022-10-22T23:27:04.075Z,91.91
2022-10-22T23:29:02.187Z,92.20
2022-10-22T23:31:00.314Z,91.66
2022-10-22T23:32:59.869Z,91.40
2022-10-22T23:34:57.967Z,91.20
2022-10-22T23:36:56.908Z,91.43
2022-10-22T23:38:58.522Z,91.93
2022-10-22T23:40:59.755Z,92.65
2022-10-22T23:42:57.924Z,92.70
2022-10-22T23:44:56.240Z,92.79
2022-10-22T23:46:55.387Z,93.04
2022-10-22T23:48:55.378Z,93.36
2022-10-22T23:52:56.650Z,93.19
2022-10-22T23:54:54.988Z,92.87
2022-10-22T23:56:53.340Z,93.20
2022-10-22T23:58:52.684Z,93.13
